Time,TemperatureF,DewpointF,PressureIn,WindDirection,WindDirectionDegrees,WindSpeedMPH,WindSpeedGustMPH,Humidity,HourlyPrecipIn,Conditions,Clouds,dailyrainin,SoftwareType,DateUTC
2013-03-26 00:00:00,23.3,18.6,30.09,West,269,0.0,1.0,82,0.00,,SKC,0.00,VWS V14.01,2013-03-26 05:00:00,
2013-03-26 00:01:00,25.1,19.8,30.09,NNE,12,0.0,0.0,80,0.00,,SKC,0.00,VWS V14.01,2013-03-26 05:01:00,
2013-03-26 00:05:00,23.2,18.5,30.09,West,277,0.0,2.0,82,0.00,,SKC,0.00,VWS V14.01,2013-03-26 05:05:00,
2013-03-26 00:06:00,25.0,19.7,30.09,NNE,12,0.0,0.0,80,0.00,,SKC,0.00,VWS V14.01,2013-03-26 05:06:00,
2013-03-26 00:10:00,23.2,18.8,30.09,West,280,2.0,2.0,83,0.00,,SKC,0.00,VWS V14.01,2013-03-26 05:10:00,
2013-03-26 00:11:00,24.9,19.6,30.09,NNE,12,0.0,1.0,80,0.00,,SKC,0.00,VWS V14.01,2013-03-26 05:11:00,
2013-03-26 00:15:00,23.2,18.8,30.09,West,267,0.0,3.0,83,0.00,,SKC,0.00,VWS V14.01,2013-03-26 05:15:00,
2013-03-26 00:16:00,24.8,19.5,30.09,NNE,12,0.0,0.0,80,0.00,,SKC,0.00,VWS V14.01,2013-03-26 05:16:00,
2013-03-26 00:20:00,23.2,18.8,30.09,West,279,0.0,3.0,83,0.00,,SKC,0.00,VWS V14.01,2013-03-26 05:20:00,
2013-03-26 00:21:00,24.7,19.4,30.09,West,273,1.0,2.0,80,0.00,,SKC,0.00,VWS V14.01,2013-03-26 05:21:00,
2013-03-26 00:25:00,23.2,18.8,30.09,WSW,254,1.0,3.0,83,0.00,,SKC,0.00,VWS V14.01,2013-03-26 05:25:00,
2013-03-26 00:26:00,24.5,18.9,30.09,West,277,1.0,2.0,79,0.00,,SKC,0.00,VWS V14.01,2013-03-26 05:26:00,
2013-03-26 00:30:00,23.2,18.8,30.09,West,261,0.0,3.0,83,0.00,,SKC,0.00,VWS V14.01,2013-03-26 05:30:00,
2013-03-26 00:32:00,24.3,19.0,30.10,WNW,292,1.0,3.0,80,0.00,,SKC,0.00,VWS V14.01,2013-03-26 05:32:00,
2013-03-26 00:35:00,23.1,18.7,30.09,West,279,0.0,2.0,83,0.00,,SKC,0.00,VWS V14.01,2013-03-26 05:35:00,
2013-03-26 00:37:00,24.0,18.7,30.10,West,276,0.0,3.0,80,0.00,,SKC,0.00,VWS V14.01,2013-03-26 05:37:00,
2013-03-26 00:40:00,23.2,18.8,30.09,West,271,1.0,1.0,83,0.00,,SKC,0.00,VWS V14.01,2013-03-26 05:40:00,
2013-03-26 00:42:00,23.8,18.8,30.10,West,276,0.0,1.0,81,0.00,,SKC,0.00,VWS V14.01,2013-03-26 05:42:00,
2013-03-26 00:45:00,23.1,18.7,30.09,West,280,1.0,2.0,83,0.00,,SKC,0.00,VWS V14.01,2013-03-26 05:45:00,
2013-03-26 00:47:00,23.6,18.6,30.10,West,277,0.0,1.0,81,0.00,,SKC,0.00,VWS V14.01,2013-03-26 05:47:00,
2013-03-26 00:50:00,23.1,19.0,30.09,West,281,1.0,1.0,84,0.00,,SKC,0.00,VWS V14.01,2013-03-26 05:50:00,
2013-03-26 00:52:00,23.5,18.8,30.10,West,277,0.0,2.0,82,0.00,,SKC,0.00,VWS V14.01,2013-03-26 05:52:00,
2013-03-26 00:55:00,23.2,19.1,30.09,West,277,2.0,2.0,84,0.00,,SKC,0.00,VWS V14.01,2013-03-26 05:55:00,
2013-03-26 00:57:00,23.4,18.7,30.10,WSW,244,1.0,1.0,82,0.00,,SKC,0.00,VWS V14.01,2013-03-26 05:57:00,
2013-03-26 01:00:00,23.2,19.1,30.09,West,279,0.0,3.0,84,0.00,,SKC,0.00,VWS V14.01,2013-03-26 06:00:00,
2013-03-26 01:02:00,23.3,18.6,30.09,West,269,0.0,1.0,82,0.00,,SKC,0.00,VWS V14.01,2013-03-26 06:02:00,
2013-03-26 01:05:00,23.2,19.1,30.09,West,267,0.0,2.0,84,0.00,,SKC,0.00,VWS V14.01,2013-03-26 06:05:00,
2013-03-26 01:07:00,23.3,18.6,30.09,West,277,1.0,2.0,82,0.00,,SKC,0.00,VWS V14.01,2013-03-26 06:07:00,
2013-03-26 01:10:00,23.2,19.1,30.09,West,265,0.0,2.0,84,0.00,,SKC,0.00,VWS V14.01,2013-03-26 06:10:00,
2013-03-26 01:12:00,23.2,18.8,30.09,WNW,286,1.0,2.0,83,0.00,,SKC,0.00,VWS V14.01,2013-03-26 06:12:00,
2013-03-26 01:15:00,23.2,19.1,30.09,WNW,288,1.0,2.0,84,0.00,,SKC,0.00,VWS V14.01,2013-03-26 06:15:00,
2013-03-26 01:17:00,23.2,18.8,30.09,West,267,0.0,3.0,83,0.00,,SKC,0.00,VWS V14.01,2013-03-26 06:17:00,
2013-03-26 01:20:00,23.2,19.1,30.09,West,277,0.0,2.0,84,0.00,,SKC,0.00,VWS V14.01,2013-03-26 06:20:00,
2013-03-26 01:22:00,23.2,18.8,30.09,West,279,0.0,3.0,83,0.00,,SKC,0.00,VWS V14.01,2013-03-26 06:22:00,
2013-03-26 01:25:00,23.2,19.1,30.09,West,271,0.0,2.0,84,0.00,,SKC,0.00,VWS V14.01,2013-03-26 06:25:00,
2013-03-26 01:27:00,23.2,18.8,30.09,West,271,0.0,3.0,83,0.00,,SKC,0.00,VWS V14.01,2013-03-26 06:27:00,
2013-03-26 01:30:00,23.2,19.1,30.09,WNW,284,0.0,2.0,84,0.00,,SKC,0.00,VWS V14.01,2013-03-26 06:30:00,
2013-03-26 01:32:00,23.2,18.8,30.09,West,261,1.0,3.0,83,0.00,,SKC,0.00,VWS V14.01,2013-03-26 06:32:00,
2013-03-26 01:35:00,23.2,18.8,30.09,WNW,282,0.0,3.0,83,0.00,,SKC,0.00,VWS V14.01,2013-03-26 06:35:00,
2013-03-26 01:37:00,23.1,18.7,30.09,West,279,0.0,2.0,83,0.00,,SKC,0.00,VWS V14.01,2013-03-26 06:37:00,
2013-03-26 01:40:00,23.2,19.1,30.09,WSW,257,0.0,0.0,84,0.00,,SKC,0.00,VWS V14.01,2013-03-26 06:40:00,
2013-03-26 01:42:00,23.2,18.8,30.09,West,271,1.0,1.0,83,0.00,,SKC,0.00,VWS V14.01,2013-03-26 06:42:00,
2013-03-26 01:45:00,23.2,19.1,30.09,West,280,1.0,2.0,84,0.00,,SKC,0.00,VWS V14.01,2013-03-26 06:45:00,
2013-03-26 01:47:00,23.1,18.7,30.09,West,280,0.0,1.0,83,0.00,,SKC,0.00,VWS V14.01,2013-03-26 06:47:00,
2013-03-26 01:50:00,23.1,18.7,30.09,West,277,0.0,3.0,83,0.00,,SKC,0.00,VWS V14.01,2013-03-26 06:50:00,
2013-03-26 01:52:00,23.1,19.0,30.09,West,281,1.0,1.0,84,0.00,,SKC,0.00,VWS V14.01,2013-03-26 06:52:00,
2013-03-26 01:55:00,23.1,19.0,30.09,West,269,0.0,0.0,84,0.00,,SKC,0.00,VWS V14.01,2013-03-26 06:55:00,
2013-03-26 01:57:00,23.2,19.1,30.09,West,280,2.0,2.0,84,0.00,,SKC,0.00,VWS V14.01,2013-03-26 06:57:00,
2013-03-26 02:00:00,23.1,19.0,30.09,WNW,291,0.0,0.0,84,0.00,,SKC,0.00,VWS V14.01,2013-03-26 07:00:00,
2013-03-26 02:02:00,23.2,19.1,30.09,West,279,0.0,0.0,84,0.00,,SKC,0.00,VWS V14.01,2013-03-26 07:02:00,
2013-03-26 02:05:00,23.1,19.0,30.09,WSW,254,0.0,0.0,84,0.00,,SKC,0.00,VWS V14.01,2013-03-26 07:05:00,
2013-03-26 02:07:00,23.2,19.1,30.09,West,264,1.0,1.0,84,0.00,,SKC,0.00,VWS V14.01,2013-03-26 07:07:00,
2013-03-26 02:10:00,23.1,19.0,30.09,West,272,0.0,0.0,84,0.00,,SKC,0.00,VWS V14.01,2013-03-26 07:10:00,
2013-03-26 02:12:00,23.2,19.1,30.09,West,265,0.0,0.0,84,0.00,,SKC,0.00,VWS V14.01,2013-03-26 07:12:00,
2013-03-26 02:15:00,23.0,18.9,30.09,West,281,0.0,0.0,84,0.00,,SKC,0.00,VWS V14.01,2013-03-26 07:15:00,
2013-03-26 02:17:00,23.2,19.1,30.09,WNW,288,1.0,1.0,84,0.00,,SKC,0.00,VWS V14.01,2013-03-26 07:17:00,
2013-03-26 02:20:00,23.1,19.3,30.09,West,273,0.0,0.0,85,0.00,,SKC,0.00,VWS V14.01,2013-03-26 07:20:00,
2013-03-26 02:22:00,23.2,19.1,30.09,West,277,0.0,0.0,84,0.00,,SKC,0.00,VWS V14.01,2013-03-26 07:22:00,
2013-03-26 02:25:00,23.0,19.2,30.09,West,273,0.0,0.0,85,0.00,,SKC,0.00,VWS V14.01,2013-03-26 07:25:00,
2013-03-26 02:27:00,23.2,19.1,30.09,West,270,0.0,0.0,84,0.00,,SKC,0.00,VWS V14.01,2013-03-26 07:27:00,
2013-03-26 02:30:00,23.0,19.2,30.09,West,273,0.0,0.0,85,0.00,,SKC,0.00,VWS V14.01,2013-03-26 07:30:00,
2013-03-26 02:32:00,23.2,19.1,30.09,West,276,1.0,1.0,84,0.00,,SKC,0.00,VWS V14.01,2013-03-26 07:32:00,
2013-03-26 02:35:00,23.0,19.2,30.09,West,271,0.0,0.0,85,0.00,,SKC,0.00,VWS V14.01,2013-03-26 07:35:00,
2013-03-26 02:37:00,23.2,18.8,30.09,WNW,282,0.0,0.0,83,0.00,,SKC,0.00,VWS V14.01,2013-03-26 07:37:00,
2013-03-26 02:40:00,22.9,19.1,30.09,West,267,0.0,0.0,85,0.00,,SKC,0.00,VWS V14.01,2013-03-26 07:40:00,
2013-03-26 02:42:00,23.2,19.1,30.09,WSW,257,0.0,0.0,84,0.00,,SKC,0.00,VWS V14.01,2013-03-26 07:42:00,
2013-03-26 02:45:00,23.0,19.4,30.09,West,277,0.0,2.0,86,0.00,,SKC,0.00,VWS V14.01,2013-03-26 07:45:00,
2013-03-26 02:47:00,23.2,19.1,30.09,West,263,1.0,3.0,84,0.00,,SKC,0.00,VWS V14.01,2013-03-26 07:47:00,
2013-03-26 02:50:00,23.0,19.4,30.09,West,274,0.0,2.0,86,0.00,,SKC,0.00,VWS V14.01,2013-03-26 07:50:00,
2013-03-26 02:52:00,23.2,18.8,30.09,West,277,0.0,0.0,83,0.00,,SKC,0.00,VWS V14.01,2013-03-26 07:52:00,
2013-03-26 02:55:00,23.0,19.4,30.09,West,275,0.0,1.0,86,0.00,,SKC,0.00,VWS V14.01,2013-03-26 07:55:00,
2013-03-26 02:57:00,23.1,19.0,30.09,West,269,0.0,0.0,84,0.00,,SKC,0.00,VWS V14.01,2013-03-26 07:57:00,
2013-03-26 03:00:00,23.0,19.4,30.09,West,280,0.0,2.0,86,0.00,,SKC,0.00,VWS V14.01,2013-03-26 08:00:00,
2013-03-26 03:02:00,23.1,19.0,30.09,WNW,291,0.0,0.0,84,0.00,,SKC,0.00,VWS V14.01,2013-03-26 08:02:00,
2013-03-26 03:05:00,23.0,19.7,30.09,West,280,0.0,1.0,87,0.00,,SKC,0.00,VWS V14.01,2013-03-26 08:05:00,
2013-03-26 03:07:00,23.1,19.0,30.09,WSW,254,0.0,0.0,84,0.00,,SKC,0.00,VWS V14.01,2013-03-26 08:07:00,
2013-03-26 03:10:00,23.0,19.7,30.09,West,267,0.0,1.0,87,0.00,,SKC,0.00,VWS V14.01,2013-03-26 08:10:00,
2013-03-26 03:13:00,23.1,19.0,30.09,West,271,0.0,0.0,84,0.00,,SKC,0.00,VWS V14.01,2013-03-26 08:13:00,
2013-03-26 03:15:00,22.9,19.6,30.09,West,267,0.0,1.0,87,0.00,,SKC,0.00,VWS V14.01,2013-03-26 08:15:00,
2013-03-26 03:18:00,23.0,18.9,30.09,West,265,0.0,0.0,84,0.00,,SKC,0.00,VWS V14.01,2013-03-26 08:18:00,
2013-03-26 03:20:00,22.9,19.6,30.09,WNW,284,2.0,2.0,87,0.00,,SKC,0.00,VWS V14.01,2013-03-26 08:20:00,
2013-03-26 03:23:00,23.0,19.2,30.09,West,273,0.0,0.0,85,0.00,,SKC,0.00,VWS V14.01,2013-03-26 08:23:00,
2013-03-26 03:25:00,23.0,19.7,30.09,West,273,0.0,2.0,87,0.00,,SKC,0.00,VWS V14.01,2013-03-26 08:25:00,
2013-03-26 03:28:00,23.0,19.2,30.09,West,273,0.0,0.0,85,0.00,,SKC,0.00,VWS V14.01,2013-03-26 08:28:00,
2013-03-26 03:30:00,23.0,20.0,30.09,West,273,0.0,0.0,88,0.00,,SKC,0.00,VWS V14.01,2013-03-26 08:30:00,
2013-03-26 03:33:00,23.0,19.2,30.09,West,273,0.0,0.0,85,0.00,,SKC,0.00,VWS V14.01,2013-03-26 08:33:00,
2013-03-26 03:35:00,23.0,20.0,30.09,West,273,0.0,0.0,88,0.00,,SKC,0.00,VWS V14.01,2013-03-26 08:35:00,
2013-03-26 03:38:00,23.0,19.2,30.09,West,271,0.0,0.0,85,0.00,,SKC,0.00,VWS V14.01,2013-03-26 08:38:00,
2013-03-26 03:40:00,23.0,20.0,30.09,West,273,0.0,0.0,88,0.00,,SKC,0.00,VWS V14.01,2013-03-26 08:40:00,
2013-03-26 03:43:00,22.9,19.1,30.09,West,272,0.0,0.0,85,0.00,,SKC,0.00,VWS V14.01,2013-03-26 08:43:00,
2013-03-26 03:45:00,23.0,20.0,30.09,West,268,0.0,0.0,88,0.00,,SKC,0.00,VWS V14.01,2013-03-26 08:45:00,
2013-03-26 03:48:00,23.0,19.5,30.09,West,277,0.0,0.0,86,0.00,,SKC,0.00,VWS V14.01,2013-03-26 08:48:00,
2013-03-26 03:50:00,23.0,20.0,30.09,West,268,0.0,0.0,88,0.00,,SKC,0.00,VWS V14.01,2013-03-26 08:50:00,
2013-03-26 03:53:00,23.0,19.5,30.09,West,274,0.0,0.0,86,0.00,,SKC,0.00,VWS V14.01,2013-03-26 08:53:00,
2013-03-26 03:55:00,23.0,20.2,30.09,West,263,0.0,0.0,89,0.00,,SKC,0.00,VWS V14.01,2013-03-26 08:55:00,
2013-03-26 03:58:00,23.0,19.5,30.09,West,275,0.0,1.0,86,0.00,,SKC,0.00,VWS V14.01,2013-03-26 08:58:00,
2013-03-26 04:00:00,23.1,20.4,30.09,West,269,0.0,0.0,89,0.00,,SKC,0.00,VWS V14.01,2013-03-26 09:00:00,
2013-03-26 04:03:00,23.0,19.5,30.09,West,280,0.0,0.0,86,0.00,,SKC,0.00,VWS V14.01,2013-03-26 09:03:00,
2013-03-26 04:05:00,23.1,20.4,30.09,West,269,0.0,0.0,89,0.00,,SKC,0.00,VWS V14.01,2013-03-26 09:05:00,
2013-03-26 04:08:00,23.0,19.7,30.09,West,280,0.0,0.0,87,0.00,,SKC,0.00,VWS V14.01,2013-03-26 09:08:00,
2013-03-26 04:10:00,23.1,20.4,30.09,West,269,0.0,0.0,89,0.00,,SKC,0.00,VWS V14.01,2013-03-26 09:10:00,
2013-03-26 04:13:00,22.9,19.6,30.09,West,267,0.0,0.0,87,0.00,,SKC,0.00,VWS V14.01,2013-03-26 09:13:00,
2013-03-26 04:15:00,23.0,20.2,30.09,West,269,0.0,0.0,89,0.00,,SKC,0.00,VWS V14.01,2013-03-26 09:15:00,
2013-03-26 04:18:00,22.9,19.6,30.09,West,267,1.0,1.0,87,0.00,,SKC,0.00,VWS V14.01,2013-03-26 09:18:00,
2013-03-26 04:20:00,23.0,20.2,30.09,West,269,0.0,0.0,89,0.00,,SKC,0.00,VWS V14.01,2013-03-26 09:20:00,
2013-03-26 04:23:00,22.9,19.6,30.09,West,273,0.0,2.0,87,0.00,,SKC,0.00,VWS V14.01,2013-03-26 09:23:00,
2013-03-26 04:25:00,23.0,20.2,30.09,West,274,0.0,0.0,89,0.00,,SKC,0.00,VWS V14.01,2013-03-26 09:25:00,
2013-03-26 04:28:00,22.9,19.6,30.09,West,273,0.0,0.0,87,0.00,,SKC,0.00,VWS V14.01,2013-03-26 09:28:00,
2013-03-26 04:30:00,23.1,20.4,30.09,West,279,0.0,0.0,89,0.00,,SKC,0.00,VWS V14.01,2013-03-26 09:30:00,
2013-03-26 04:33:00,22.9,19.9,30.09,West,273,0.0,0.0,88,0.00,,SKC,0.00,VWS V14.01,2013-03-26 09:33:00,
2013-03-26 04:35:00,23.1,20.4,30.09,West,276,0.0,1.0,89,0.00,,SKC,0.00,VWS V14.01,2013-03-26 09:35:00,
2013-03-26 04:38:00,23.0,20.0,30.09,West,273,0.0,0.0,88,0.00,,SKC,0.00,VWS V14.01,2013-03-26 09:38:00,
2013-03-26 04:40:00,23.1,20.4,30.09,West,273,0.0,1.0,89,0.00,,SKC,0.00,VWS V14.01,2013-03-26 09:40:00,
2013-03-26 04:43:00,23.0,20.0,30.09,West,273,0.0,0.0,88,0.00,,SKC,0.00,VWS V14.01,2013-03-26 09:43:00,
2013-03-26 04:45:00,23.2,20.4,30.10,West,264,0.0,1.0,89,0.00,,SKC,0.00,VWS V14.01,2013-03-26 09:45:00,
2013-03-26 04:48:00,23.0,20.0,30.09,West,268,0.0,0.0,88,0.00,,SKC,0.00,VWS V14.01,2013-03-26 09:48:00,
2013-03-26 04:50:00,23.2,20.4,30.10,West,271,1.0,2.0,89,0.00,,SKC,0.00,VWS V14.01,2013-03-26 09:50:00,
2013-03-26 04:53:00,23.0,20.0,30.09,West,268,0.0,0.0,88,0.00,,SKC,0.00,VWS V14.01,2013-03-26 09:53:00,
2013-03-26 04:55:00,23.3,20.5,30.10,West,272,0.0,2.0,89,0.00,,SKC,0.00,VWS V14.01,2013-03-26 09:55:00,
2013-03-26 04:58:00,23.0,20.2,30.09,West,263,0.0,0.0,89,0.00,,SKC,0.00,VWS V14.01,2013-03-26 09:58:00,
2013-03-26 05:00:00,23.3,20.5,30.10,West,272,0.0,3.0,89,0.00,,SKC,0.00,VWS V14.01,2013-03-26 10:00:00,
2013-03-26 05:03:00,23.1,20.4,30.09,West,269,0.0,0.0,89,0.00,,SKC,0.00,VWS V14.01,2013-03-26 10:03:00,
2013-03-26 05:05:00,23.3,20.5,30.10,WNW,284,0.0,1.0,89,0.00,,SKC,0.00,VWS V14.01,2013-03-26 10:05:00,
2013-03-26 05:08:00,23.1,20.4,30.09,West,269,0.0,0.0,89,0.00,,SKC,0.00,VWS V14.01,2013-03-26 10:08:00,
2013-03-26 05:10:00,23.3,20.5,30.10,West,273,0.0,1.0,89,0.00,,SKC,0.00,VWS V14.01,2013-03-26 10:10:00,
2013-03-26 05:13:00,23.0,20.2,30.09,West,269,0.0,0.0,89,0.00,,SKC,0.00,VWS V14.01,2013-03-26 10:13:00,
2013-03-26 05:15:00,23.3,20.8,30.11,West,269,0.0,2.0,90,0.00,,SKC,0.00,VWS V14.01,2013-03-26 10:15:00,
2013-03-26 05:18:00,23.0,20.2,30.09,West,269,0.0,0.0,89,0.00,,SKC,0.00,VWS V14.01,2013-03-26 10:18:00,
2013-03-26 05:20:00,23.3,20.8,30.11,West,263,0.0,1.0,90,0.00,,SKC,0.00,VWS V14.01,2013-03-26 10:20:00,
2013-03-26 05:23:00,23.0,20.2,30.09,West,269,0.0,0.0,89,0.00,,SKC,0.00,VWS V14.01,2013-03-26 10:23:00,
2013-03-26 05:25:00,23.3,20.8,30.11,West,275,0.0,1.0,90,0.00,,SKC,0.00,VWS V14.01,2013-03-26 10:25:00,
2013-03-26 05:28:00,23.0,20.2,30.09,West,273,0.0,0.0,89,0.00,,SKC,0.00,VWS V14.01,2013-03-26 10:28:00,
2013-03-26 05:30:00,23.3,20.8,30.11,West,272,0.0,1.0,90,0.00,,SKC,0.00,VWS V14.01,2013-03-26 10:30:00,
2013-03-26 05:33:00,23.1,20.4,30.09,West,277,0.0,1.0,89,0.00,,SKC,0.00,VWS V14.01,2013-03-26 10:33:00,
2013-03-26 05:35:00,23.4,20.9,30.11,West,271,0.0,1.0,90,0.00,,SKC,0.00,VWS V14.01,2013-03-26 10:35:00,
2013-03-26 05:38:00,23.1,20.4,30.09,West,261,0.0,1.0,89,0.00,,SKC,0.00,VWS V14.01,2013-03-26 10:38:00,
2013-03-26 05:40:00,23.4,20.9,30.11,West,272,0.0,0.0,90,0.00,,SKC,0.00,VWS V14.01,2013-03-26 10:40:00,
2013-03-26 05:43:00,23.1,20.4,30.09,West,273,0.0,1.0,89,0.00,,SKC,0.00,VWS V14.01,2013-03-26 10:43:00,
2013-03-26 05:45:00,23.4,20.9,30.11,West,272,0.0,0.0,90,0.00,,SKC,0.00,VWS V14.01,2013-03-26 10:45:00,
2013-03-26 05:48:00,23.2,20.5,30.10,West,265,1.0,1.0,89,0.00,,SKC,0.00,VWS V14.01,2013-03-26 10:48:00,
2013-03-26 05:50:00,23.4,20.9,30.11,West,272,0.0,0.0,90,0.00,,SKC,0.00,VWS V14.01,2013-03-26 10:50:00,
2013-03-26 05:53:00,23.2,20.5,30.10,WNW,283,1.0,1.0,89,0.00,,SKC,0.00,VWS V14.01,2013-03-26 10:53:00,
2013-03-26 05:55:00,23.4,20.9,30.11,West,272,0.0,1.0,90,0.00,,SKC,0.00,VWS V14.01,2013-03-26 10:55:00,
2013-03-26 05:58:00,23.3,20.5,30.10,West,281,1.0,2.0,89,0.00,,SKC,0.00,VWS V14.01,2013-03-26 10:58:00,
2013-03-26 06:00:00,23.4,20.9,30.12,West,272,0.0,1.0,90,0.00,,SKC,0.00,VWS V14.01,2013-03-26 11:00:00,
2013-03-26 06:03:00,23.3,20.5,30.10,West,272,0.0,0.0,89,0.00,,SKC,0.00,VWS V14.01,2013-03-26 11:03:00,
2013-03-26 06:05:00,23.4,20.9,30.12,West,280,0.0,0.0,90,0.00,,SKC,0.00,VWS V14.01,2013-03-26 11:05:00,
2013-03-26 06:08:00,23.3,20.5,30.10,West,272,0.0,1.0,89,0.00,,SKC,0.00,VWS V14.01,2013-03-26 11:08:00,
2013-03-26 06:10:00,23.5,21.0,30.12,West,280,0.0,0.0,90,0.00,,SKC,0.00,VWS V14.01,2013-03-26 11:10:00,
2013-03-26 06:13:00,23.3,20.8,30.10,WNW,283,2.0,2.0,90,0.00,,SKC,0.00,VWS V14.01,2013-03-26 11:13:00,
2013-03-26 06:15:00,23.6,21.1,30.12,West,280,0.0,0.0,90,0.00,,SKC,0.00,VWS V14.01,2013-03-26 11:15:00,
2013-03-26 06:18:00,23.3,20.8,30.11,West,279,1.0,1.0,90,0.00,,SKC,0.00,VWS V14.01,2013-03-26 11:18:00,
2013-03-26 06:20:00,23.7,21.2,30.12,West,263,0.0,0.0,90,0.00,,SKC,0.00,VWS V14.01,2013-03-26 11:20:00,
2013-03-26 06:23:00,23.3,20.8,30.11,West,273,0.0,1.0,90,0.00,,SKC,0.00,VWS V14.01,2013-03-26 11:23:00,
2013-03-26 06:25:00,23.8,21.3,30.12,WSW,256,0.0,0.0,90,0.00,,SKC,0.00,VWS V14.01,2013-03-26 11:25:00,
2013-03-26 06:28:00,23.3,20.8,30.11,West,274,0.0,0.0,90,0.00,,SKC,0.00,VWS V14.01,2013-03-26 11:28:00,
2013-03-26 06:30:00,23.9,21.4,30.12,WNW,291,2.0,3.0,90,0.00,,SKC,0.00,VWS V14.01,2013-03-26 11:30:00,
2013-03-26 06:33:00,23.4,20.9,30.11,West,272,0.0,1.0,90,0.00,,SKC,0.00,VWS V14.01,2013-03-26 11:33:00,
2013-03-26 06:35:00,24.0,21.5,30.12,West,280,1.0,3.0,90,0.00,,SKC,0.00,VWS V14.01,2013-03-26 11:35:00,
2013-03-26 06:38:00,23.4,20.9,30.11,West,272,0.0,0.0,90,0.00,,SKC,0.00,VWS V14.01,2013-03-26 11:38:00,
2013-03-26 06:40:00,24.2,21.7,30.12,WSW,254,0.0,1.0,90,0.00,,SKC,0.00,VWS V14.01,2013-03-26 11:40:00,
2013-03-26 06:43:00,23.4,20.9,30.11,West,272,0.0,0.0,90,0.00,,SKC,0.00,VWS V14.01,2013-03-26 11:43:00,
2013-03-26 06:45:00,24.3,21.8,30.12,WSW,258,1.0,1.0,90,0.00,,SKC,0.00,VWS V14.01,2013-03-26 11:45:00,
2013-03-26 06:48:00,23.4,20.9,30.11,West,272,0.0,0.0,90,0.00,,SKC,0.00,VWS V14.01,2013-03-26 11:48:00,
2013-03-26 06:50:00,24.4,21.9,30.12,WNW,283,1.0,3.0,90,0.00,,SKC,0.00,VWS V14.01,2013-03-26 11:50:00,
2013-03-26 06:53:00,23.4,20.9,30.11,West,272,0.0,0.0,90,0.00,,SKC,0.00,VWS V14.01,2013-03-26 11:53:00,
2013-03-26 06:55:00,24.6,22.1,30.12,West,269,0.0,2.0,90,0.00,,SKC,0.00,VWS V14.01,2013-03-26 11:55:00,
2013-03-26 06:58:00,23.4,20.9,30.11,West,272,0.0,0.0,90,0.00,,SKC,0.00,VWS V14.01,2013-03-26 11:58:00,
2013-03-26 07:00:00,24.7,21.9,30.12,West,281,0.0,1.0,89,0.00,,SKC,0.00,VWS V14.01,2013-03-26 12:00:00,
2013-03-26 07:03:00,23.4,20.9,30.12,West,272,0.0,0.0,90,0.00,,SKC,0.00,VWS V14.01,2013-03-26 12:03:00,
2013-03-26 07:05:00,24.9,22.1,30.12,West,273,1.0,1.0,89,0.00,,SKC,0.00,VWS V14.01,2013-03-26 12:05:00,
2013-03-26 07:09:00,23.5,21.0,30.12,West,280,0.0,0.0,90,0.00,,SKC,0.00,VWS V14.01,2013-03-26 12:09:00,
2013-03-26 07:10:00,25.1,22.3,30.12,West,270,0.0,2.0,89,0.00,,SKC,0.00,VWS V14.01,2013-03-26 12:10:00,
2013-03-26 07:14:00,23.6,21.1,30.12,West,280,0.0,0.0,90,0.00,,SKC,0.00,VWS V14.01,2013-03-26 12:14:00,
2013-03-26 07:15:00,25.3,22.5,30.13,West,270,0.0,0.0,89,0.00,,SKC,0.00,VWS V14.01,2013-03-26 12:15:00,
2013-03-26 07:19:00,23.6,21.1,30.12,WSW,257,0.0,0.0,90,0.00,,SKC,0.00,VWS V14.01,2013-03-26 12:19:00,
2013-03-26 07:20:00,25.5,22.7,30.13,West,261,0.0,0.0,89,0.00,,SKC,0.00,VWS V14.01,2013-03-26 12:20:00,
2013-03-26 07:24:00,23.7,21.2,30.12,West,280,0.0,0.0,90,0.00,,SKC,0.00,VWS V14.01,2013-03-26 12:24:00,
2013-03-26 07:25:00,25.7,22.6,30.13,West,281,1.0,3.0,88,0.00,,SKC,0.00,VWS V14.01,2013-03-26 12:25:00,
2013-03-26 07:29:00,23.8,21.3,30.12,West,276,1.0,3.0,90,0.00,,SKC,0.00,VWS V14.01,2013-03-26 12:29:00,
2013-03-26 07:30:00,25.9,22.8,30.13,WNW,283,2.0,2.0,88,0.00,,SKC,0.00,VWS V14.01,2013-03-26 12:30:00,
2013-03-26 07:34:00,24.0,21.5,30.12,West,280,2.0,2.0,90,0.00,,SKC,0.00,VWS V14.01,2013-03-26 12:34:00,
2013-03-26 07:35:00,26.1,23.0,30.13,WNW,288,2.0,2.0,88,0.00,,SKC,0.00,VWS V14.01,2013-03-26 12:35:00,
2013-03-26 07:39:00,24.1,21.6,30.12,West,274,0.0,1.0,90,0.00,,SKC,0.00,VWS V14.01,2013-03-26 12:39:00,
2013-03-26 07:40:00,26.3,23.2,30.13,WNW,282,0.0,2.0,88,0.00,,SKC,0.00,VWS V14.01,2013-03-26 12:40:00,
2013-03-26 07:44:00,24.2,21.7,30.12,WSW,254,0.0,0.0,90,0.00,,SKC,0.00,VWS V14.01,2013-03-26 12:44:00,
2013-03-26 07:45:00,26.5,23.4,30.14,West,276,0.0,3.0,88,0.00,,SKC,0.00,VWS V14.01,2013-03-26 12:45:00,
2013-03-26 07:49:00,24.4,21.9,30.12,West,280,2.0,2.0,90,0.00,,SKC,0.00,VWS V14.01,2013-03-26 12:49:00,
2013-03-26 07:50:00,26.8,23.5,30.14,NW,314,0.0,2.0,87,0.00,,SKC,0.00,VWS V14.01,2013-03-26 12:50:00,
2013-03-26 07:54:00,24.5,22.0,30.12,West,281,1.0,2.0,90,0.00,,SKC,0.00,VWS V14.01,2013-03-26 12:54:00,
2013-03-26 07:55:00,27.0,23.6,30.14,NE,44,0.0,2.0,87,0.00,,SKC,0.00,VWS V14.01,2013-03-26 12:55:00,
2013-03-26 07:59:00,24.6,21.8,30.12,West,271,0.0,1.0,89,0.00,,SKC,0.00,VWS V14.01,2013-03-26 12:59:00,
2013-03-26 08:00:00,27.3,24.0,30.14,West,265,0.0,1.0,87,0.00,,SKC,0.00,VWS V14.01,2013-03-26 13:00:00,
2013-03-26 08:04:00,24.8,22.0,30.12,West,281,1.0,1.0,89,0.00,,SKC,0.00,VWS V14.01,2013-03-26 13:04:00,
2013-03-26 08:05:00,27.7,24.1,30.14,NE,41,1.0,1.0,86,0.00,,SKC,0.00,VWS V14.01,2013-03-26 13:05:00,
2013-03-26 08:09:00,24.9,22.1,30.12,West,277,1.0,2.0,89,0.00,,SKC,0.00,VWS V14.01,2013-03-26 13:09:00,
2013-03-26 08:10:00,27.8,24.2,30.14,North,11,0.0,3.0,86,0.00,,SKC,0.00,VWS V14.01,2013-03-26 13:10:00,
2013-03-26 08:14:00,25.2,22.4,30.12,West,271,0.0,0.0,89,0.00,,SKC,0.00,VWS V14.01,2013-03-26 13:14:00,
2013-03-26 08:15:00,28.1,24.5,30.14,WNW,298,0.0,1.0,86,0.00,,SKC,0.00,VWS V14.01,2013-03-26 13:15:00,
2013-03-26 08:19:00,25.4,22.6,30.13,West,270,0.0,0.0,89,0.00,,SKC,0.00,VWS V14.01,2013-03-26 13:19:00,
2013-03-26 08:20:00,28.3,24.4,30.14,WNW,286,1.0,2.0,85,0.00,,SKC,0.00,VWS V14.01,2013-03-26 13:20:00,
2013-03-26 08:24:00,25.6,22.5,30.13,West,277,0.0,0.0,88,0.00,,SKC,0.00,VWS V14.01,2013-03-26 13:24:00,
2013-03-26 08:25:00,28.7,24.8,30.14,West,277,1.0,1.0,85,0.00,,SKC,0.00,VWS V14.01,2013-03-26 13:25:00,
2013-03-26 08:29:00,25.8,22.7,30.13,West,280,1.0,1.0,88,0.00,,SKC,0.00,VWS V14.01,2013-03-26 13:29:00,
2013-03-26 08:30:00,29.0,24.8,30.14,West,272,0.0,2.0,84,0.00,,SKC,0.00,VWS V14.01,2013-03-26 13:30:00,
2013-03-26 08:34:00,26.0,22.9,30.13,West,266,0.0,2.0,88,0.00,,SKC,0.00,VWS V14.01,2013-03-26 13:34:00,
2013-03-26 08:35:00,29.3,25.1,30.14,WSW,253,0.0,3.0,84,0.00,,SKC,0.00,VWS V14.01,2013-03-26 13:35:00,
2013-03-26 08:39:00,26.2,23.1,30.13,WNW,299,0.0,2.0,88,0.00,,SKC,0.00,VWS V14.01,2013-03-26 13:39:00,
2013-03-26 08:40:00,29.6,25.4,30.14,West,267,2.0,3.0,84,0.00,,SKC,0.00,VWS V14.01,2013-03-26 13:40:00,
2013-03-26 08:44:00,26.4,23.3,30.13,WNW,283,0.0,3.0,88,0.00,,SKC,0.00,VWS V14.01,2013-03-26 13:44:00,
2013-03-26 08:45:00,29.7,25.2,30.14,West,277,0.0,3.0,83,0.00,,SKC,0.00,VWS V14.01,2013-03-26 13:45:00,
2013-03-26 08:49:00,26.6,23.5,30.14,West,277,0.0,1.0,88,0.00,,SKC,0.00,VWS V14.01,2013-03-26 13:49:00,
2013-03-26 08:50:00,30.1,25.6,30.14,NNE,26,1.0,4.0,83,0.00,,SKC,0.00,VWS V14.01,2013-03-26 13:50:00,
2013-03-26 08:54:00,26.9,23.6,30.14,NE,44,1.0,2.0,87,0.00,,SKC,0.00,VWS V14.01,2013-03-26 13:54:00,
2013-03-26 08:55:00,30.3,25.5,30.14,WNW,297,2.0,3.0,82,0.00,,SKC,0.00,VWS V14.01,2013-03-26 13:55:00,
2013-03-26 08:59:00,27.1,23.8,30.14,West,277,0.0,1.0,87,0.00,,SKC,0.00,VWS V14.01,2013-03-26 13:59:00,
2013-03-26 09:00:00,30.6,25.5,30.14,West,265,2.0,4.0,81,0.00,,SKC,0.00,VWS V14.01,2013-03-26 14:00:00,
2013-03-26 09:04:00,27.5,24.1,30.14,West,265,0.0,0.0,87,0.00,,SKC,0.00,VWS V14.01,2013-03-26 14:04:00,
2013-03-26 09:05:00,30.9,25.8,30.14,West,260,0.0,2.0,81,0.00,,SKC,0.00,VWS V14.01,2013-03-26 14:05:00,
2013-03-26 09:09:00,27.7,24.1,30.14,NW,309,0.0,2.0,86,0.00,,SKC,0.00,VWS V14.01,2013-03-26 14:09:00,
2013-03-26 09:10:00,31.4,26.2,30.14,WSW,241,0.0,4.0,81,0.00,,SKC,0.00,VWS V14.01,2013-03-26 14:10:00,
2013-03-26 09:14:00,27.9,24.3,30.14,NNE,12,0.0,1.0,86,0.00,,SKC,0.00,VWS V14.01,2013-03-26 14:14:00,
2013-03-26 09:15:00,31.8,26.0,30.14,NNE,20,5.0,5.0,79,0.00,,SKC,0.00,VWS V14.01,2013-03-26 14:15:00,
2013-03-26 09:19:00,28.2,24.3,30.14,WNW,292,0.0,1.0,85,0.00,,SKC,0.00,VWS V14.01,2013-03-26 14:19:00,
2013-03-26 09:20:00,32.1,26.3,30.14,NNW,340,2.0,5.0,79,0.00,,SKC,0.00,VWS V14.01,2013-03-26 14:20:00,
2013-03-26 09:24:00,28.5,24.6,30.14,West,276,0.0,1.0,85,0.00,,SKC,0.00,VWS V14.01,2013-03-26 14:24:00,
2013-03-26 09:25:00,32.1,26.0,30.14,WSW,257,2.0,5.0,78,0.00,,SKC,0.00,VWS V14.01,2013-03-26 14:25:00,
2013-03-26 09:29:00,28.8,24.9,30.14,WNW,282,1.0,2.0,85,0.00,,SKC,0.00,VWS V14.01,2013-03-26 14:29:00,
2013-03-26 09:30:00,32.5,26.4,30.14,NNE,27,0.0,4.0,78,0.00,,SKC,0.00,VWS V14.01,2013-03-26 14:30:00,
2013-03-26 09:34:00,29.1,24.9,30.14,WNW,300,0.0,3.0,84,0.00,,SKC,0.00,VWS V14.01,2013-03-26 14:34:00,
2013-03-26 09:35:00,32.8,26.7,30.14,WNW,282,2.0,4.0,78,0.00,,SKC,0.00,VWS V14.01,2013-03-26 14:35:00,
2013-03-26 09:39:00,29.4,25.2,30.14,WNW,286,0.0,1.0,84,0.00,,SKC,0.00,VWS V14.01,2013-03-26 14:39:00,
2013-03-26 09:40:00,32.6,26.2,30.14,WSW,256,3.0,5.0,77,0.00,,SKC,0.00,VWS V14.01,2013-03-26 14:40:00,
2013-03-26 09:44:00,29.6,25.1,30.14,West,276,2.0,3.0,83,0.00,,SKC,0.00,VWS V14.01,2013-03-26 14:44:00,
2013-03-26 09:45:00,32.8,26.7,30.14,West,272,0.0,3.0,78,0.00,,SKC,0.00,VWS V14.01,2013-03-26 14:45:00,
2013-03-26 09:49:00,29.8,25.3,30.14,West,277,1.0,1.0,83,0.00,,SKC,0.00,VWS V14.01,2013-03-26 14:49:00,
2013-03-26 09:50:00,33.0,26.3,30.14,WSW,253,1.0,6.0,76,0.00,,SKC,0.00,VWS V14.01,2013-03-26 14:50:00,
2013-03-26 09:54:00,30.2,25.7,30.14,NW,314,0.0,1.0,83,0.00,,SKC,0.00,VWS V14.01,2013-03-26 14:54:00,
2013-03-26 09:55:00,33.2,26.5,30.14,West,275,1.0,4.0,76,0.00,,SKC,0.00,VWS V14.01,2013-03-26 14:55:00,
2013-03-26 09:59:00,30.5,25.7,30.14,WNW,297,0.0,2.0,82,0.00,,SKC,0.00,VWS V14.01,2013-03-26 14:59:00,
2013-03-26 10:00:00,33.5,26.4,30.14,NE,43,1.0,6.0,75,0.00,,SKC,0.00,VWS V14.01,2013-03-26 15:00:00,
2013-03-26 10:04:00,30.7,25.6,30.14,West,269,0.0,2.0,81,0.00,,SKC,0.00,VWS V14.01,2013-03-26 15:04:00,
2013-03-26 10:05:00,34.0,26.9,30.14,NW,306,1.0,6.0,75,0.00,,SKC,0.00,VWS V14.01,2013-03-26 15:05:00,
2013-03-26 10:09:00,31.1,26.3,30.14,North,355,0.0,4.0,82,0.00,,SKC,0.00,VWS V14.01,2013-03-26 15:09:00,
2013-03-26 10:10:00,34.4,27.0,30.14,NW,307,1.0,4.0,74,0.00,,SKC,0.00,VWS V14.01,2013-03-26 15:10:00,
2013-03-26 10:14:00,31.5,26.4,30.14,WSW,241,0.0,0.0,81,0.00,,SKC,0.00,VWS V14.01,2013-03-26 15:14:00,
2013-03-26 10:15:00,34.9,26.8,30.14,WNW,292,1.0,4.0,72,0.00,,SKC,0.00,VWS V14.01,2013-03-26 15:15:00,
2013-03-26 10:19:00,31.9,26.1,30.14,NW,309,0.0,5.0,79,0.00,,SKC,0.00,VWS V14.01,2013-03-26 15:19:00,
2013-03-26 10:20:00,34.8,26.7,30.14,WSW,246,1.0,6.0,72,0.00,,SKC,0.00,VWS V14.01,2013-03-26 15:20:00,
2013-03-26 10:24:00,32.1,26.3,30.14,West,265,1.0,3.0,79,0.00,,SKC,0.00,VWS V14.01,2013-03-26 15:24:00,
2013-03-26 10:25:00,34.9,26.5,30.14,NNW,331,1.0,5.0,71,0.00,,SKC,0.00,VWS V14.01,2013-03-26 15:25:00,
2013-03-26 10:29:00,32.3,26.5,30.14,SSE,152,0.0,2.0,79,0.00,,SKC,0.00,VWS V14.01,2013-03-26 15:29:00,
2013-03-26 10:30:00,35.2,26.8,30.14,WNW,284,1.0,5.0,71,0.00,,SKC,0.00,VWS V14.01,2013-03-26 15:30:00,
2013-03-26 10:34:00,32.7,26.3,30.14,West,275,3.0,4.0,77,0.00,,SKC,0.00,VWS V14.01,2013-03-26 15:34:00,
2013-03-26 10:35:00,35.4,26.3,30.14,NNE,30,2.0,6.0,69,0.00,,SKC,0.00,VWS V14.01,2013-03-26 15:35:00,
2013-03-26 10:39:00,32.7,26.3,30.14,WSW,243,2.0,5.0,77,0.00,,SKC,0.00,VWS V14.01,2013-03-26 15:39:00,
2013-03-26 10:40:00,35.6,26.1,30.14,NW,316,1.0,5.0,68,0.00,,SKC,0.00,VWS V14.01,2013-03-26 15:40:00,
2013-03-26 10:44:00,32.6,26.2,30.14,West,277,2.0,3.0,77,0.00,,SKC,0.00,VWS V14.01,2013-03-26 15:44:00,
2013-03-26 10:45:00,35.9,26.4,30.14,WNW,298,2.0,2.0,68,0.00,,SKC,0.00,VWS V14.01,2013-03-26 15:45:00,
2013-03-26 10:49:00,33.0,26.6,30.14,West,261,6.0,6.0,77,0.00,,SKC,0.00,VWS V14.01,2013-03-26 15:49:00,
2013-03-26 10:50:00,36.1,26.2,30.14,NNE,32,2.0,4.0,67,0.00,,SKC,0.00,VWS V14.01,2013-03-26 15:50:00,
2013-03-26 10:54:00,33.1,26.4,30.14,WSW,250,4.0,4.0,76,0.00,,SKC,0.00,VWS V14.01,2013-03-26 15:54:00,
2013-03-26 10:55:00,36.4,26.5,30.14,WNW,293,2.0,3.0,67,0.00,,SKC,0.00,VWS V14.01,2013-03-26 15:55:00,
2013-03-26 10:59:00,33.3,26.6,30.14,WNW,282,3.0,4.0,76,0.00,,SKC,0.00,VWS V14.01,2013-03-26 15:59:00,
2013-03-26 11:00:00,36.2,26.0,30.14,NW,320,1.0,6.0,66,0.00,,SKC,0.00,VWS V14.01,2013-03-26 16:00:00,
2013-03-26 11:04:00,33.7,26.6,30.14,NNE,20,2.0,6.0,75,0.00,,SKC,0.00,VWS V14.01,2013-03-26 16:04:00,
2013-03-26 11:05:00,36.2,26.3,30.14,WNW,302,2.0,4.0,67,0.00,,SKC,0.00,VWS V14.01,2013-03-26 16:05:00,
2013-03-26 11:09:00,34.3,26.9,30.14,NW,319,1.0,4.0,74,0.00,,SKC,0.00,VWS V14.01,2013-03-26 16:09:00,
2013-03-26 11:10:00,36.1,25.9,30.14,West,269,1.0,7.0,66,0.00,,SKC,0.00,VWS V14.01,2013-03-26 16:10:00,
2013-03-26 11:14:00,34.7,27.0,30.14,WNW,288,1.0,2.0,73,0.00,,SKC,0.00,VWS V14.01,2013-03-26 16:14:00,
2013-03-26 11:15:00,36.6,26.7,30.14,WNW,286,0.0,1.0,67,0.00,,SKC,0.00,VWS V14.01,2013-03-26 16:15:00,
2013-03-26 11:19:00,34.8,26.4,30.14,NNW,329,1.0,6.0,71,0.00,,SKC,0.00,VWS V14.01,2013-03-26 16:19:00,
2013-03-26 11:20:00,36.7,26.1,30.14,WSW,250,2.0,6.0,65,0.00,,SKC,0.00,VWS V14.01,2013-03-26 16:20:00,
2013-03-26 11:24:00,34.8,26.4,30.14,West,280,3.0,3.0,71,0.00,,SKC,0.00,VWS V14.01,2013-03-26 16:24:00,
2013-03-26 11:25:00,36.8,26.1,30.14,NE,48,2.0,5.0,65,0.00,,SKC,0.00,VWS V14.01,2013-03-26 16:25:00,
2013-03-26 11:29:00,35.1,26.7,30.14,NW,317,2.0,5.0,71,0.00,,SKC,0.00,VWS V14.01,2013-03-26 16:29:00,
2013-03-26 11:30:00,36.7,25.7,30.14,West,275,4.0,5.0,64,0.00,,SKC,0.00,VWS V14.01,2013-03-26 16:30:00,
2013-03-26 11:34:00,35.4,27.0,30.14,WSW,253,6.0,6.0,71,0.00,,SKC,0.00,VWS V14.01,2013-03-26 16:34:00,
2013-03-26 11:35:00,36.6,25.6,30.14,SW,229,2.0,8.0,64,0.00,,SKC,0.00,VWS V14.01,2013-03-26 16:35:00,
2013-03-26 11:39:00,35.5,26.4,30.14,West,267,0.0,3.0,69,0.00,,SKC,0.00,VWS V14.01,2013-03-26 16:39:00,
2013-03-26 11:40:00,36.9,25.9,30.14,West,281,1.0,5.0,64,0.00,,SKC,0.00,VWS V14.01,2013-03-26 16:40:00,
2013-03-26 11:44:00,35.6,26.5,30.14,WSW,253,0.0,2.0,69,0.00,,SKC,0.00,VWS V14.01,2013-03-26 16:44:00,
2013-03-26 11:45:00,37.1,25.7,30.14,NNW,340,0.0,4.0,63,0.00,,SKC,0.00,VWS V14.01,2013-03-26 16:45:00,
2013-03-26 11:49:00,36.0,26.5,30.14,NNW,329,1.0,4.0,68,0.00,,SKC,0.00,VWS V14.01,2013-03-26 16:49:00,
2013-03-26 11:50:00,37.2,25.4,30.14,East,93,1.0,5.0,62,0.00,,SKC,0.00,VWS V14.01,2013-03-26 16:50:00,
2013-03-26 11:54:00,36.2,26.3,30.14,East,82,0.0,2.0,67,0.00,,SKC,0.00,VWS V14.01,2013-03-26 16:54:00,
2013-03-26 11:55:00,37.3,25.9,30.14,WSW,256,2.0,4.0,63,0.00,,SKC,0.00,VWS V14.01,2013-03-26 16:55:00,
2013-03-26 11:59:00,36.4,26.1,30.14,West,264,2.0,5.0,66,0.00,,SKC,0.00,VWS V14.01,2013-03-26 16:59:00,
2013-03-26 12:00:00,37.1,24.9,30.14,NNW,331,0.0,5.0,61,0.00,,SKC,0.00,VWS V14.01,2013-03-26 17:00:00,
2013-03-26 12:04:00,36.2,26.0,30.14,NW,316,3.0,3.0,66,0.00,,SKC,0.00,VWS V14.01,2013-03-26 17:04:00,
2013-03-26 12:05:00,37.0,25.6,30.14,WSW,250,0.0,4.0,63,0.00,,SKC,0.00,VWS V14.01,2013-03-26 17:05:00,
2013-03-26 12:09:00,36.2,26.3,30.14,West,277,1.0,5.0,67,0.00,,SKC,0.00,VWS V14.01,2013-03-26 17:09:00,
2013-03-26 12:10:00,37.2,25.8,30.14,WSW,253,0.0,0.0,63,0.00,,SKC,0.00,VWS V14.01,2013-03-26 17:10:00,
2013-03-26 12:14:00,36.3,26.4,30.14,SSE,167,0.0,1.0,67,0.00,,SKC,0.00,VWS V14.01,2013-03-26 17:14:00,
2013-03-26 12:15:00,37.3,25.5,30.13,WNW,287,1.0,2.0,62,0.00,,SKC,0.00,VWS V14.01,2013-03-26 17:15:00,
2013-03-26 12:19:00,36.8,26.5,30.14,West,263,1.0,6.0,66,0.00,,SKC,0.00,VWS V14.01,2013-03-26 17:19:00,
2013-03-26 12:20:00,37.2,25.0,30.13,West,277,0.0,2.0,61,0.00,,SKC,0.00,VWS V14.01,2013-03-26 17:20:00,
2013-03-26 12:24:00,36.8,26.5,30.14,West,280,1.0,3.0,66,0.00,,SKC,0.00,VWS V14.01,2013-03-26 17:24:00,
2013-03-26 12:25:00,37.1,24.9,30.13,NW,309,0.0,2.0,61,0.00,,SKC,0.00,VWS V14.01,2013-03-26 17:25:00,
2013-03-26 12:29:00,36.8,25.8,30.14,NW,312,0.0,4.0,64,0.00,,SKC,0.00,VWS V14.01,2013-03-26 17:29:00,
2013-03-26 12:30:00,37.1,24.9,30.14,West,271,2.0,2.0,61,0.00,,SKC,0.00,VWS V14.01,2013-03-26 17:30:00,
2013-03-26 12:34:00,36.6,25.6,30.14,West,261,3.0,4.0,64,0.00,,SKC,0.00,VWS V14.01,2013-03-26 17:34:00,
2013-03-26 12:35:00,36.9,24.3,30.14,West,279,2.0,3.0,60,0.00,,SKC,0.00,VWS V14.01,2013-03-26 17:35:00,
2013-03-26 12:40:00,36.8,25.8,30.14,West,280,2.0,5.0,64,0.00,,SKC,0.00,VWS V14.01,2013-03-26 17:40:00,
2013-03-26 12:45:00,37.0,25.6,30.14,ENE,65,2.0,4.0,63,0.00,,SKC,0.00,VWS V14.01,2013-03-26 17:45:00,
2013-03-26 12:50:00,37.2,25.4,30.14,WSW,248,1.0,2.0,62,0.00,,SKC,0.00,VWS V14.01,2013-03-26 17:50:00,
2013-03-26 12:55:00,37.2,25.8,30.14,WNW,286,2.0,4.0,63,0.00,,SKC,0.00,VWS V14.01,2013-03-26 17:55:00,
2013-03-26 13:00:00,37.2,25.0,30.14,NNE,19,1.0,5.0,61,0.00,,SKC,0.00,VWS V14.01,2013-03-26 18:00:00,
2013-03-26 13:05:00,37.0,25.2,30.14,NNW,344,1.0,4.0,62,0.00,,SKC,0.00,VWS V14.01,2013-03-26 18:05:00,
2013-03-26 13:10:00,37.0,26.0,30.14,East,91,0.0,0.0,64,0.00,,SKC,0.00,VWS V14.01,2013-03-26 18:10:00,
2013-03-26 13:15:00,37.3,25.5,30.14,East,86,1.0,2.0,62,0.00,,SKC,0.00,VWS V14.01,2013-03-26 18:15:00,
2013-03-26 13:20:00,37.2,25.0,30.13,West,276,2.0,2.0,61,0.00,,SKC,0.00,VWS V14.01,2013-03-26 18:20:00,
2013-03-26 13:25:00,37.1,24.9,30.13,WNW,295,1.0,2.0,61,0.00,,SKC,0.00,VWS V14.01,2013-03-26 18:25:00,
2013-03-26 13:30:00,37.1,24.9,30.13,NNE,13,1.0,2.0,61,0.00,,SKC,0.00,VWS V14.01,2013-03-26 18:30:00,
2013-03-26 13:35:00,37.0,24.4,30.14,WNW,283,0.0,3.0,60,0.00,,SKC,0.00,VWS V14.01,2013-03-26 18:35:00,
2013-03-26 13:40:00,36.9,24.3,30.14,West,277,1.0,3.0,60,0.00,,SKC,0.00,VWS V14.01,2013-03-26 18:40:00,
2013-03-26 13:45:00,37.0,24.4,30.14,NNE,12,2.0,2.0,60,0.00,,SKC,0.00,VWS V14.01,2013-03-26 18:45:00,
2013-03-26 13:50:00,36.6,23.2,30.13,NE,42,0.0,5.0,58,0.00,,SKC,0.00,VWS V14.01,2013-03-26 18:50:00,
2013-03-26 13:55:00,36.8,24.2,30.13,NE,42,0.0,2.0,60,0.00,,SKC,0.00,VWS V14.01,2013-03-26 18:55:00,
2013-03-26 14:00:00,37.1,22.9,30.13,West,280,2.0,3.0,56,0.00,,SKC,0.00,VWS V14.01,2013-03-26 19:00:00,
2013-03-26 14:05:00,37.1,22.4,30.13,West,277,1.0,3.0,55,0.00,,SKC,0.00,VWS V14.01,2013-03-26 19:05:00,
2013-03-26 14:10:00,37.3,23.5,30.13,WNW,300,0.0,0.0,57,0.00,,SKC,0.00,VWS V14.01,2013-03-26 19:10:00,
2013-03-26 14:15:00,37.1,22.9,30.13,NW,319,1.0,5.0,56,0.00,,SKC,0.00,VWS V14.01,2013-03-26 19:15:00,
2013-03-26 14:20:00,37.0,22.8,30.13,WSW,253,1.0,3.0,56,0.00,,SKC,0.00,VWS V14.01,2013-03-26 19:20:00,
2013-03-26 14:25:00,37.0,21.9,30.13,NE,55,1.0,3.0,54,0.00,,SKC,0.00,VWS V14.01,2013-03-26 19:25:00,
2013-03-26 14:30:00,37.2,21.7,30.13,WSW,248,1.0,3.0,53,0.00,,SKC,0.00,VWS V14.01,2013-03-26 19:30:00,
2013-03-26 14:35:00,37.2,21.7,30.13,WNW,294,2.0,3.0,53,0.00,,SKC,0.00,VWS V14.01,2013-03-26 19:35:00,
2013-03-26 14:40:00,37.1,21.1,30.13,West,271,1.0,3.0,52,0.00,,SKC,0.00,VWS V14.01,2013-03-26 19:40:00,
2013-03-26 14:45:00,37.0,21.0,30.13,NW,307,2.0,4.0,52,0.00,,SKC,0.00,VWS V14.01,2013-03-26 19:45:00,
2013-03-26 14:50:00,36.9,20.9,30.13,WNW,300,2.0,3.0,52,0.00,,SKC,0.00,VWS V14.01,2013-03-26 19:50:00,
2013-03-26 14:55:00,36.8,21.3,30.13,WSW,254,0.0,2.0,53,0.00,,SKC,0.00,VWS V14.01,2013-03-26 19:55:00,
2013-03-26 15:00:00,36.7,21.6,30.13,WNW,282,0.0,3.0,54,0.00,,SKC,0.00,VWS V14.01,2013-03-26 20:00:00,
2013-03-26 15:05:00,36.9,22.7,30.13,WNW,283,0.0,1.0,56,0.00,,SKC,0.00,VWS V14.01,2013-03-26 20:05:00,
2013-03-26 15:10:00,36.8,22.2,30.13,West,261,4.0,4.0,55,0.00,,SKC,0.00,VWS V14.01,2013-03-26 20:10:00,
2013-03-26 15:15:00,36.6,22.0,30.13,West,272,4.0,5.0,55,0.00,,SKC,0.00,VWS V14.01,2013-03-26 20:15:00,
2013-03-26 15:20:00,36.4,21.4,30.13,West,269,2.0,5.0,54,0.00,,SKC,0.00,VWS V14.01,2013-03-26 20:20:00,
2013-03-26 15:25:00,36.3,21.3,30.13,West,281,3.0,7.0,54,0.00,,SKC,0.00,VWS V14.01,2013-03-26 20:25:00,
2013-03-26 15:30:00,36.2,21.2,30.13,NW,307,2.0,3.0,54,0.00,,SKC,0.00,VWS V14.01,2013-03-26 20:30:00,
2013-03-26 15:35:00,36.4,21.4,30.13,NW,309,1.0,3.0,54,0.00,,SKC,0.00,VWS V14.01,2013-03-26 20:35:00,
2013-03-26 15:40:00,36.7,22.9,30.13,WNW,302,3.0,4.0,57,0.00,,SKC,0.00,VWS V14.01,2013-03-26 20:40:00,
2013-03-26 15:45:00,36.5,21.9,30.13,West,279,1.0,4.0,55,0.00,,SKC,0.00,VWS V14.01,2013-03-26 20:45:00,
2013-03-26 15:50:00,36.3,22.5,30.13,WSW,246,2.0,4.0,57,0.00,,SKC,0.00,VWS V14.01,2013-03-26 20:50:00,
2013-03-26 15:55:00,36.2,22.5,30.13,West,260,4.0,6.0,57,0.00,,SKC,0.00,VWS V14.01,2013-03-26 20:55:00,
2013-03-26 16:00:00,36.1,22.8,30.13,NNW,327,3.0,5.0,58,0.00,,SKC,0.00,VWS V14.01,2013-03-26 21:00:00,
2013-03-26 16:05:00,36.2,23.3,30.13,West,269,1.0,4.0,59,0.00,,SKC,0.00,VWS V14.01,2013-03-26 21:05:00,
2013-03-26 16:10:00,36.0,23.5,30.13,West,269,1.0,6.0,60,0.00,,SKC,0.00,VWS V14.01,2013-03-26 21:10:00,
2013-03-26 16:15:00,35.8,22.9,30.13,West,280,1.0,3.0,59,0.00,,SKC,0.00,VWS V14.01,2013-03-26 21:15:00,
2013-03-26 16:20:00,36.0,24.3,30.13,WNW,300,1.0,2.0,62,0.00,,SKC,0.00,VWS V14.01,2013-03-26 21:20:00,
2013-03-26 16:25:00,36.0,23.9,30.13,WNW,283,2.0,4.0,61,0.00,,SKC,0.00,VWS V14.01,2013-03-26 21:25:00,
2013-03-26 16:30:00,35.7,23.6,30.13,WSW,253,2.0,4.0,61,0.00,,SKC,0.00,VWS V14.01,2013-03-26 21:30:00,
2013-03-26 16:35:00,35.5,23.4,30.13,West,280,3.0,4.0,61,0.00,,SKC,0.00,VWS V14.01,2013-03-26 21:35:00,
2013-03-26 16:40:00,35.6,23.5,30.13,NNE,29,0.0,2.0,61,0.00,,SKC,0.00,VWS V14.01,2013-03-26 21:40:00,
2013-03-26 16:45:00,35.8,24.1,30.13,NNE,26,3.0,3.0,62,0.00,,SKC,0.00,VWS V14.01,2013-03-26 21:45:00,
2013-03-26 16:50:00,35.6,23.1,30.13,WNW,301,0.0,4.0,60,0.00,,SKC,0.00,VWS V14.01,2013-03-26 21:50:00,
2013-03-26 16:55:00,35.6,23.1,30.13,North,350,1.0,4.0,60,0.00,,SKC,0.00,VWS V14.01,2013-03-26 21:55:00,
2013-03-26 17:00:00,35.6,23.1,30.13,NNE,28,0.0,3.0,60,0.00,,SKC,0.00,VWS V14.01,2013-03-26 22:00:00,
2013-03-26 17:05:00,34.4,24.2,30.15,WNW,282,0.0,1.0,66,0.00,,SKC,0.00,VWS V14.01,2013-03-26 22:05:00,
2013-03-26 17:06:00,35.7,23.2,30.13,WSW,258,0.0,2.0,60,0.00,,SKC,0.00,VWS V14.01,2013-03-26 22:06:00,
2013-03-26 17:10:00,34.4,24.2,30.15,NE,37,1.0,4.0,66,0.00,,SKC,0.00,VWS V14.01,2013-03-26 22:10:00,
2013-03-26 17:11:00,35.9,23.0,30.13,NE,54,1.0,6.0,59,0.00,,SKC,0.00,VWS V14.01,2013-03-26 22:11:00,
2013-03-26 17:15:00,34.5,24.3,30.15,WSW,256,4.0,4.0,66,0.00,,SKC,0.00,VWS V14.01,2013-03-26 22:15:00,
2013-03-26 17:16:00,35.9,23.0,30.13,West,273,2.0,4.0,59,0.00,,SKC,0.00,VWS V14.01,2013-03-26 22:16:00,
2013-03-26 17:20:00,34.3,23.4,30.15,West,275,2.0,5.0,64,0.00,,SKC,0.00,VWS V14.01,2013-03-26 22:20:00,
2013-03-26 17:21:00,35.7,23.6,30.14,WNW,282,1.0,2.0,61,0.00,,SKC,0.00,VWS V14.01,2013-03-26 22:21:00,
2013-03-26 17:25:00,34.2,23.3,30.15,NNE,29,1.0,6.0,64,0.00,,SKC,0.00,VWS V14.01,2013-03-26 22:25:00,
2013-03-26 17:26:00,35.7,23.6,30.14,NW,305,1.0,3.0,61,0.00,,SKC,0.00,VWS V14.01,2013-03-26 22:26:00,
2013-03-26 17:30:00,34.1,23.6,30.15,West,263,0.0,3.0,65,0.00,,SKC,0.00,VWS V14.01,2013-03-26 22:30:00,
2013-03-26 17:31:00,35.5,23.8,30.14,WNW,286,3.0,6.0,62,0.00,,SKC,0.00,VWS V14.01,2013-03-26 22:31:00,
2013-03-26 17:35:00,34.0,23.1,30.15,WNW,285,0.0,2.0,64,0.00,,SKC,0.00,VWS V14.01,2013-03-26 22:35:00,
2013-03-26 17:36:00,35.3,24.7,30.14,WNW,286,2.0,2.0,65,0.00,,SKC,0.00,VWS V14.01,2013-03-26 22:36:00,
2013-03-26 17:40:00,34.0,23.9,30.15,NNW,340,0.0,1.0,66,0.00,,SKC,0.00,VWS V14.01,2013-03-26 22:40:00,
2013-03-26 17:41:00,35.1,24.5,30.14,NW,321,1.0,3.0,65,0.00,,SKC,0.00,VWS V14.01,2013-03-26 22:41:00,
2013-03-26 17:45:00,33.8,24.0,30.15,West,275,0.0,2.0,67,0.00,,SKC,0.00,VWS V14.01,2013-03-26 22:45:00,
2013-03-26 17:46:00,35.0,24.4,30.15,NNE,31,3.0,4.0,65,0.00,,SKC,0.00,VWS V14.01,2013-03-26 22:46:00,
2013-03-26 17:50:00,33.7,24.3,30.15,West,269,0.0,2.0,68,0.00,,SKC,0.00,VWS V14.01,2013-03-26 22:50:00,
2013-03-26 17:51:00,34.8,24.2,30.15,East,85,1.0,4.0,65,0.00,,SKC,0.00,VWS V14.01,2013-03-26 22:51:00,
2013-03-26 17:55:00,33.6,23.8,30.15,West,281,1.0,4.0,67,0.00,,SKC,0.00,VWS V14.01,2013-03-26 22:55:00,
2013-03-26 17:56:00,34.6,24.1,30.15,West,273,2.0,5.0,65,0.00,,SKC,0.00,VWS V14.01,2013-03-26 22:56:00,
2013-03-26 18:00:00,33.5,24.1,30.15,WNW,292,1.0,2.0,68,0.00,,SKC,0.00,VWS V14.01,2013-03-26 23:00:00,
2013-03-26 18:02:00,34.5,23.6,30.15,WNW,282,2.0,5.0,64,0.00,,SKC,0.00,VWS V14.01,2013-03-26 23:02:00,
2013-03-26 18:05:00,33.4,24.0,30.15,WNW,287,0.0,1.0,68,0.00,,SKC,0.00,VWS V14.01,2013-03-26 23:05:00,
2013-03-26 18:07:00,34.4,24.2,30.15,WNW,282,0.0,1.0,66,0.00,,SKC,0.00,VWS V14.01,2013-03-26 23:07:00,
2013-03-26 18:10:00,33.2,24.1,30.15,WSW,251,1.0,3.0,69,0.00,,SKC,0.00,VWS V14.01,2013-03-26 23:10:00,
2013-03-26 18:12:00,34.4,24.2,30.15,NE,42,1.0,4.0,66,0.00,,SKC,0.00,VWS V14.01,2013-03-26 23:12:00,
2013-03-26 18:15:00,33.1,23.7,30.15,WSW,252,0.0,1.0,68,0.00,,SKC,0.00,VWS V14.01,2013-03-26 23:15:00,
2013-03-26 18:17:00,34.5,24.3,30.15,WNW,283,2.0,2.0,66,0.00,,SKC,0.00,VWS V14.01,2013-03-26 23:17:00,
2013-03-26 18:20:00,33.0,24.3,30.15,WSW,252,0.0,0.0,70,0.00,,SKC,0.00,VWS V14.01,2013-03-26 23:20:00,
2013-03-26 18:22:00,34.4,23.5,30.15,NW,324,1.0,5.0,64,0.00,,SKC,0.00,VWS V14.01,2013-03-26 23:22:00,
2013-03-26 18:25:00,32.9,24.2,30.15,West,276,1.0,1.0,70,0.00,,SKC,0.00,VWS V14.01,2013-03-26 23:25:00,
2013-03-26 18:27:00,34.3,23.8,30.15,West,277,1.0,6.0,65,0.00,,SKC,0.00,VWS V14.01,2013-03-26 23:27:00,
2013-03-26 18:30:00,32.8,24.1,30.15,West,275,0.0,1.0,70,0.00,,SKC,0.00,VWS V14.01,2013-03-26 23:30:00,
2013-03-26 18:32:00,34.1,23.6,30.15,West,263,1.0,3.0,65,0.00,,SKC,0.00,VWS V14.01,2013-03-26 23:32:00,
2013-03-26 18:35:00,32.7,24.4,30.15,East,84,0.0,1.0,71,0.00,,SKC,0.00,VWS V14.01,2013-03-26 23:35:00,
2013-03-26 18:37:00,34.0,23.1,30.15,WNW,285,0.0,2.0,64,0.00,,SKC,0.00,VWS V14.01,2013-03-26 23:37:00,
2013-03-26 18:40:00,32.7,24.0,30.15,NNW,348,0.0,5.0,70,0.00,,SKC,0.00,VWS V14.01,2013-03-26 23:40:00,
2013-03-26 18:42:00,34.0,23.9,30.15,NNW,340,0.0,1.0,66,0.00,,SKC,0.00,VWS V14.01,2013-03-26 23:42:00,
2013-03-26 18:45:00,32.6,24.2,30.16,NW,319,0.0,1.0,71,0.00,,SKC,0.00,VWS V14.01,2013-03-26 23:45:00,
2013-03-26 18:47:00,33.9,24.1,30.15,West,275,0.0,2.0,67,0.00,,SKC,0.00,VWS V14.01,2013-03-26 23:47:00,
2013-03-26 18:50:00,32.5,24.2,30.16,ENE,68,0.0,2.0,71,0.00,,SKC,0.00,VWS V14.01,2013-03-26 23:50:00,
2013-03-26 18:52:00,33.7,24.3,30.15,West,272,0.0,2.0,68,0.00,,SKC,0.00,VWS V14.01,2013-03-26 23:52:00,
2013-03-26 18:55:00,32.5,24.5,30.16,North,350,0.0,1.0,72,0.00,,SKC,0.00,VWS V14.01,2013-03-26 23:55:00,
2013-03-26 18:57:00,33.6,23.8,30.15,WNW,286,1.0,4.0,67,0.00,,SKC,0.00,VWS V14.01,2013-03-26 23:57:00,
2013-03-26 19:00:00,32.4,24.4,30.16,NNE,15,0.0,1.0,72,0.00,,SKC,0.00,VWS V14.01,2013-03-27 00:00:00,
2013-03-26 19:02:00,33.5,24.1,30.15,WNW,292,1.0,2.0,68,0.00,,SKC,0.00,VWS V14.01,2013-03-27 00:02:00,
2013-03-26 19:05:00,32.3,24.0,30.16,NNE,22,3.0,3.0,71,0.00,,SKC,0.00,VWS V14.01,2013-03-27 00:05:00,
2013-03-26 19:07:00,33.4,24.0,30.15,WNW,287,0.0,0.0,68,0.00,,SKC,0.00,VWS V14.01,2013-03-27 00:07:00,
2013-03-26 19:10:00,32.2,23.9,30.16,NNW,341,0.0,3.0,71,0.00,,SKC,0.00,VWS V14.01,2013-03-27 00:10:00,
2013-03-26 19:12:00,33.2,24.1,30.15,WSW,251,1.0,3.0,69,0.00,,SKC,0.00,VWS V14.01,2013-03-27 00:12:00,
2013-03-26 19:15:00,32.1,24.1,30.16,NNW,341,0.0,0.0,72,0.00,,SKC,0.00,VWS V14.01,2013-03-27 00:15:00,
2013-03-26 19:17:00,33.1,23.7,30.15,WSW,252,0.0,1.0,68,0.00,,SKC,0.00,VWS V14.01,2013-03-27 00:17:00,
2013-03-26 19:20:00,32.0,23.7,30.16,NNE,22,0.0,1.0,71,0.00,,SKC,0.00,VWS V14.01,2013-03-27 00:20:00,
2013-03-26 19:22:00,33.0,24.3,30.15,WSW,252,0.0,0.0,70,0.00,,SKC,0.00,VWS V14.01,2013-03-27 00:22:00,
2013-03-26 19:25:00,32.0,23.7,30.16,North,355,0.0,1.0,71,0.00,,SKC,0.00,VWS V14.01,2013-03-27 00:25:00,
2013-03-26 19:27:00,32.9,24.2,30.15,West,276,1.0,1.0,70,0.00,,SKC,0.00,VWS V14.01,2013-03-27 00:27:00,
2013-03-26 19:30:00,31.8,23.8,30.16,North,351,0.0,0.0,72,0.00,,SKC,0.00,VWS V14.01,2013-03-27 00:30:00,
2013-03-26 19:32:00,32.8,24.1,30.15,West,275,0.0,1.0,70,0.00,,SKC,0.00,VWS V14.01,2013-03-27 00:32:00,
2013-03-26 19:35:00,31.7,23.7,30.16,North,355,0.0,0.0,72,0.00,,SKC,0.00,VWS V14.01,2013-03-27 00:35:00,
2013-03-26 19:37:00,32.7,24.4,30.15,East,84,0.0,1.0,71,0.00,,SKC,0.00,VWS V14.01,2013-03-27 00:37:00,
2013-03-26 19:40:00,31.6,23.6,30.16,NW,306,1.0,1.0,72,0.00,,SKC,0.00,VWS V14.01,2013-03-27 00:40:00,
2013-03-26 19:42:00,32.7,24.0,30.15,NNW,348,0.0,5.0,70,0.00,,SKC,0.00,VWS V14.01,2013-03-27 00:42:00,
2013-03-26 19:45:00,31.6,23.6,30.16,WNW,303,0.0,1.0,72,0.00,,SKC,0.00,VWS V14.01,2013-03-27 00:45:00,
2013-03-26 19:47:00,32.6,24.2,30.16,NW,319,0.0,0.0,71,0.00,,SKC,0.00,VWS V14.01,2013-03-27 00:47:00,
2013-03-26 19:50:00,31.6,23.6,30.16,WNW,302,0.0,0.0,72,0.00,,SKC,0.00,VWS V14.01,2013-03-27 00:50:00,
2013-03-26 19:52:00,32.5,24.2,30.16,ENE,68,1.0,1.0,71,0.00,,SKC,0.00,VWS V14.01,2013-03-27 00:52:00,
2013-03-26 19:55:00,31.5,23.5,30.16,WNW,303,0.0,0.0,72,0.00,,SKC,0.00,VWS V14.01,2013-03-27 00:55:00,
2013-03-26 19:57:00,32.5,24.5,30.16,NNE,17,0.0,0.0,72,0.00,,SKC,0.00,VWS V14.01,2013-03-27 00:57:00,
2013-03-26 20:00:00,31.4,23.4,30.17,WNW,303,0.0,0.0,72,0.00,,SKC,0.00,VWS V14.01,2013-03-27 01:00:00,
2013-03-26 20:02:00,32.4,24.4,30.16,NNE,16,0.0,0.0,72,0.00,,SKC,0.00,VWS V14.01,2013-03-27 01:02:00,
2013-03-26 20:05:00,31.4,23.8,30.17,WNW,303,0.0,0.0,73,0.00,,SKC,0.00,VWS V14.01,2013-03-27 01:05:00,
2013-03-26 20:07:00,32.3,24.0,30.16,North,360,3.0,3.0,71,0.00,,SKC,0.00,VWS V14.01,2013-03-27 01:07:00,
2013-03-26 20:10:00,31.4,23.4,30.17,WNW,302,0.0,0.0,72,0.00,,SKC,0.00,VWS V14.01,2013-03-27 01:10:00,
2013-03-26 20:12:00,32.2,23.9,30.16,NNW,341,0.0,0.0,71,0.00,,SKC,0.00,VWS V14.01,2013-03-27 01:12:00,
2013-03-26 20:15:00,31.3,23.7,30.17,WNW,303,0.0,0.0,73,0.00,,SKC,0.00,VWS V14.01,2013-03-27 01:15:00,
2013-03-26 20:17:00,32.1,24.1,30.16,NNW,341,0.0,0.0,72,0.00,,SKC,0.00,VWS V14.01,2013-03-27 01:17:00,
2013-03-26 20:20:00,31.3,23.7,30.17,WNW,303,0.0,0.0,73,0.00,,SKC,0.00,VWS V14.01,2013-03-27 01:20:00,
2013-03-26 20:22:00,32.0,23.7,30.16,NNE,22,0.0,0.0,71,0.00,,SKC,0.00,VWS V14.01,2013-03-27 01:22:00,
2013-03-26 20:25:00,31.2,23.6,30.17,WNW,302,0.0,0.0,73,0.00,,SKC,0.00,VWS V14.01,2013-03-27 01:25:00,
2013-03-26 20:27:00,31.9,23.6,30.16,North,351,0.0,0.0,71,0.00,,SKC,0.00,VWS V14.01,2013-03-27 01:27:00,
2013-03-26 20:30:00,31.1,24.4,30.17,WNW,303,0.0,0.0,76,0.00,,SKC,0.00,VWS V14.01,2013-03-27 01:30:00,
2013-03-26 20:32:00,31.8,23.8,30.16,North,351,0.0,0.0,72,0.00,,SKC,0.00,VWS V14.01,2013-03-27 01:32:00,
2013-03-26 20:35:00,30.9,24.2,30.17,WNW,303,0.0,0.0,76,0.00,,SKC,0.00,VWS V14.01,2013-03-27 01:35:00,
2013-03-26 20:37:00,31.7,23.7,30.16,North,355,0.0,0.0,72,0.00,,SKC,0.00,VWS V14.01,2013-03-27 01:37:00,
2013-03-26 20:40:00,30.8,23.8,30.17,WNW,303,0.0,0.0,75,0.00,,SKC,0.00,VWS V14.01,2013-03-27 01:40:00,
2013-03-26 20:42:00,31.6,23.6,30.16,NW,307,0.0,1.0,72,0.00,,SKC,0.00,VWS V14.01,2013-03-27 01:42:00,
2013-03-26 20:45:00,30.8,23.5,30.17,WNW,302,0.0,0.0,74,0.00,,SKC,0.00,VWS V14.01,2013-03-27 01:45:00,
2013-03-26 20:47:00,31.6,23.6,30.16,WNW,303,0.0,0.0,72,0.00,,SKC,0.00,VWS V14.01,2013-03-27 01:47:00,
2013-03-26 20:50:00,30.7,23.4,30.17,WNW,303,0.0,0.0,74,0.00,,SKC,0.00,VWS V14.01,2013-03-27 01:50:00,
2013-03-26 20:52:00,31.6,23.6,30.16,WNW,302,0.0,0.0,72,0.00,,SKC,0.00,VWS V14.01,2013-03-27 01:52:00,
2013-03-26 20:55:00,30.6,23.6,30.17,WNW,303,0.0,0.0,75,0.00,,SKC,0.00,VWS V14.01,2013-03-27 01:55:00,
2013-03-26 20:57:00,31.5,23.9,30.16,WNW,302,0.0,0.0,73,0.00,,SKC,0.00,VWS V14.01,2013-03-27 01:57:00,
2013-03-26 21:00:00,30.5,23.9,30.17,WNW,303,0.0,0.0,76,0.00,,SKC,0.00,VWS V14.01,2013-03-27 02:00:00,
2013-03-26 21:02:00,31.4,23.4,30.17,WNW,302,0.0,0.0,72,0.00,,SKC,0.00,VWS V14.01,2013-03-27 02:02:00,
2013-03-26 21:05:00,30.3,23.7,30.17,WNW,302,0.0,0.0,76,0.00,,SKC,0.00,VWS V14.01,2013-03-27 02:05:00,
2013-03-26 21:07:00,31.4,23.8,30.17,WNW,303,0.0,0.0,73,0.00,,SKC,0.00,VWS V14.01,2013-03-27 02:07:00,
2013-03-26 21:10:00,30.2,24.5,30.17,WNW,302,0.0,0.0,79,0.00,,SKC,0.00,VWS V14.01,2013-03-27 02:10:00,
2013-03-26 21:12:00,31.4,23.4,30.17,WNW,303,0.0,0.0,72,0.00,,SKC,0.00,VWS V14.01,2013-03-27 02:12:00,
2013-03-26 21:15:00,30.1,25.0,30.17,WNW,303,0.0,0.0,81,0.00,,SKC,0.00,VWS V14.01,2013-03-27 02:15:00,
2013-03-26 21:18:00,31.3,23.7,30.17,WNW,302,0.0,0.0,73,0.00,,SKC,0.00,VWS V14.01,2013-03-27 02:18:00,
2013-03-26 21:20:00,29.8,23.8,30.17,WNW,303,0.0,0.0,78,0.00,,SKC,0.00,VWS V14.01,2013-03-27 02:20:00,
2013-03-26 21:23:00,31.3,23.7,30.17,WNW,303,0.0,0.0,73,0.00,,SKC,0.00,VWS V14.01,2013-03-27 02:23:00,
2013-03-26 21:25:00,29.6,23.9,30.17,WNW,303,0.0,0.0,79,0.00,,SKC,0.00,VWS V14.01,2013-03-27 02:25:00,
2013-03-26 21:28:00,31.2,23.6,30.17,WNW,302,0.0,0.0,73,0.00,,SKC,0.00,VWS V14.01,2013-03-27 02:28:00,
2013-03-26 21:30:00,29.4,23.7,30.17,WNW,303,0.0,0.0,79,0.00,,SKC,0.00,VWS V14.01,2013-03-27 02:30:00,
2013-03-26 21:33:00,31.1,24.8,30.17,WNW,302,0.0,0.0,77,0.00,,SKC,0.00,VWS V14.01,2013-03-27 02:33:00,
2013-03-26 21:35:00,29.3,23.3,30.17,WNW,303,0.0,0.0,78,0.00,,SKC,0.00,VWS V14.01,2013-03-27 02:35:00,
2013-03-26 21:38:00,30.9,23.9,30.17,WNW,302,0.0,0.0,75,0.00,,SKC,0.00,VWS V14.01,2013-03-27 02:38:00,
2013-03-26 21:40:00,29.0,23.3,30.17,WNW,302,0.0,0.0,79,0.00,,SKC,0.00,VWS V14.01,2013-03-27 02:40:00,
2013-03-26 21:43:00,30.8,23.8,30.17,WNW,303,0.0,0.0,75,0.00,,SKC,0.00,VWS V14.01,2013-03-27 02:43:00,
2013-03-26 21:45:00,28.8,22.8,30.17,WNW,303,0.0,0.0,78,0.00,,SKC,0.00,VWS V14.01,2013-03-27 02:45:00,
2013-03-26 21:48:00,30.8,23.5,30.17,WNW,303,0.0,0.0,74,0.00,,SKC,0.00,VWS V14.01,2013-03-27 02:48:00,
2013-03-26 21:50:00,28.7,22.7,30.17,WNW,302,0.0,0.0,78,0.00,,SKC,0.00,VWS V14.01,2013-03-27 02:50:00,
2013-03-26 21:53:00,30.7,23.4,30.17,WNW,303,0.0,0.0,74,0.00,,SKC,0.00,VWS V14.01,2013-03-27 02:53:00,
2013-03-26 21:55:00,28.7,23.0,30.17,WNW,303,0.0,0.0,79,0.00,,SKC,0.00,VWS V14.01,2013-03-27 02:55:00,
2013-03-26 21:57:00,28.7,23.0,30.17,WNW,303,0.0,0.0,79,0.00,,SKC,0.00,VWS V14.01,2013-03-27 02:57:00,
2013-03-26 21:58:00,30.6,24.0,30.17,WNW,303,0.0,0.0,76,0.00,,SKC,0.00,VWS V14.01,2013-03-27 02:58:00,
2013-03-26 21:59:00,28.7,23.0,30.17,WNW,303,0.0,0.0,79,0.00,,SKC,0.00,VWS V14.01,2013-03-27 02:59:00,
2013-03-26 22:00:00,28.7,23.0,30.17,WNW,303,0.0,0.0,79,0.00,,SKC,0.00,VWS V14.01,2013-03-27 03:00:00,
2013-03-26 22:01:00,28.6,22.9,30.17,WNW,302,0.0,0.0,79,0.00,,SKC,0.00,VWS V14.01,2013-03-27 03:01:00,
2013-03-26 22:02:00,28.6,22.9,30.17,WNW,302,0.0,0.0,79,0.00,,SKC,0.00,VWS V14.01,2013-03-27 03:02:00,
2013-03-26 22:03:00,30.5,23.9,30.17,WNW,302,0.0,0.0,76,0.00,,SKC,0.00,VWS V14.01,2013-03-27 03:03:00,
2013-03-26 22:04:00,28.6,23.5,30.17,WNW,302,0.0,0.0,81,0.00,,SKC,0.00,VWS V14.01,2013-03-27 03:04:00,
2013-03-26 22:05:00,28.5,23.4,30.17,WNW,303,0.0,0.0,81,0.00,,SKC,0.00,VWS V14.01,2013-03-27 03:05:00,
2013-03-26 22:06:00,28.5,23.7,30.17,WNW,303,0.0,0.0,82,0.00,,SKC,0.00,VWS V14.01,2013-03-27 03:06:00,
2013-03-26 22:07:00,28.5,23.4,30.17,WNW,302,0.0,0.0,81,0.00,,SKC,0.00,VWS V14.01,2013-03-27 03:07:00,
2013-03-26 22:08:00,30.3,23.7,30.17,WNW,303,0.0,0.0,76,0.00,,SKC,0.00,VWS V14.01,2013-03-27 03:08:00,
2013-03-26 22:10:00,28.4,23.3,30.17,WNW,303,0.0,0.0,81,0.00,,SKC,0.00,VWS V14.01,2013-03-27 03:10:00,
2013-03-26 22:13:00,30.2,24.8,30.17,WNW,302,0.0,0.0,80,0.00,,SKC,0.00,VWS V14.01,2013-03-27 03:13:00,
2013-03-26 22:15:00,28.3,23.2,30.17,WNW,303,0.0,0.0,81,0.00,,SKC,0.00,VWS V14.01,2013-03-27 03:15:00,
2013-03-26 22:18:00,30.0,24.9,30.17,WNW,302,0.0,0.0,81,0.00,,SKC,0.00,VWS V14.01,2013-03-27 03:18:00,
2013-03-26 22:20:00,28.2,23.1,30.17,WNW,302,0.0,0.0,81,0.00,,SKC,0.00,VWS V14.01,2013-03-27 03:20:00,
2013-03-26 22:23:00,29.7,23.7,30.17,WNW,302,0.0,0.0,78,0.00,,SKC,0.00,VWS V14.01,2013-03-27 03:23:00,
2013-03-26 22:25:00,28.2,23.4,30.17,WNW,302,0.0,0.0,82,0.00,,SKC,0.00,VWS V14.01,2013-03-27 03:25:00,
2013-03-26 22:28:00,29.6,23.9,30.17,WNW,303,0.0,0.0,79,0.00,,SKC,0.00,VWS V14.01,2013-03-27 03:28:00,
2013-03-26 22:30:00,28.2,23.4,30.17,WNW,302,0.0,0.0,82,0.00,,SKC,0.00,VWS V14.01,2013-03-27 03:30:00,
2013-03-26 22:33:00,29.4,23.4,30.17,WNW,302,0.0,0.0,78,0.00,,SKC,0.00,VWS V14.01,2013-03-27 03:33:00,
2013-03-26 22:35:00,28.1,23.6,30.17,WNW,302,0.0,0.0,83,0.00,,SKC,0.00,VWS V14.01,2013-03-27 03:35:00,
2013-03-26 22:38:00,29.2,23.2,30.17,WNW,302,0.0,0.0,78,0.00,,SKC,0.00,VWS V14.01,2013-03-27 03:38:00,
2013-03-26 22:40:00,28.1,23.0,30.17,WNW,302,0.0,0.0,81,0.00,,SKC,0.00,VWS V14.01,2013-03-27 03:40:00,
2013-03-26 22:43:00,29.0,23.0,30.17,WNW,302,0.0,0.0,78,0.00,,SKC,0.00,VWS V14.01,2013-03-27 03:43:00,
2013-03-26 22:45:00,28.1,23.3,30.18,WNW,303,0.0,0.0,82,0.00,,SKC,0.00,VWS V14.01,2013-03-27 03:45:00,
2013-03-26 22:48:00,28.8,22.8,30.17,WNW,303,0.0,0.0,78,0.00,,SKC,0.00,VWS V14.01,2013-03-27 03:48:00,
2013-03-26 22:50:00,28.1,23.9,30.18,WNW,302,0.0,0.0,84,0.00,,SKC,0.00,VWS V14.01,2013-03-27 03:50:00,
2013-03-26 22:53:00,28.7,23.0,30.17,WNW,302,0.0,0.0,79,0.00,,SKC,0.00,VWS V14.01,2013-03-27 03:53:00,
2013-03-26 22:55:00,28.1,23.6,30.18,WNW,302,0.0,0.0,83,0.00,,SKC,0.00,VWS V14.01,2013-03-27 03:55:00,
2013-03-26 22:58:00,28.7,23.0,30.17,WNW,303,0.0,0.0,79,0.00,,SKC,0.00,VWS V14.01,2013-03-27 03:58:00,
2013-03-26 23:00:00,28.3,23.5,30.18,WNW,303,0.0,0.0,82,0.00,,SKC,0.00,VWS V14.01,2013-03-27 04:00:00,
2013-03-26 23:05:00,28.6,23.2,30.17,WNW,302,0.0,0.0,80,0.00,,SKC,0.00,VWS V14.01,2013-03-27 04:05:00,
2013-03-26 23:10:00,28.4,23.3,30.17,WNW,303,0.0,0.0,81,0.00,,SKC,0.00,VWS V14.01,2013-03-27 04:10:00,
2013-03-26 23:15:00,28.3,23.2,30.17,WNW,302,0.0,0.0,81,0.00,,SKC,0.00,VWS V14.01,2013-03-27 04:15:00,
2013-03-26 23:20:00,28.3,22.9,30.17,WNW,303,0.0,0.0,80,0.00,,SKC,0.00,VWS V14.01,2013-03-27 04:20:00,
2013-03-26 23:25:00,28.2,23.1,30.17,WNW,303,0.0,0.0,81,0.00,,SKC,0.00,VWS V14.01,2013-03-27 04:25:00,
2013-03-26 23:30:00,28.2,23.1,30.17,WNW,302,0.0,0.0,81,0.00,,SKC,0.00,VWS V14.01,2013-03-27 04:30:00,
2013-03-26 23:35:00,28.1,23.3,30.17,WNW,303,0.0,0.0,82,0.00,,SKC,0.00,VWS V14.01,2013-03-27 04:35:00,
2013-03-26 23:40:00,28.1,23.3,30.17,WNW,303,0.0,0.0,82,0.00,,SKC,0.00,VWS V14.01,2013-03-27 04:40:00,
2013-03-26 23:45:00,28.1,23.0,30.17,WNW,303,0.0,0.0,81,0.00,,SKC,0.00,VWS V14.01,2013-03-27 04:45:00,
2013-03-26 23:50:00,28.1,23.9,30.18,WNW,302,0.0,0.0,84,0.00,,SKC,0.00,VWS V14.01,2013-03-27 04:50:00,
2013-03-26 23:55:00,28.1,24.2,30.18,WNW,302,0.0,0.0,85,0.00,,SKC,0.00,VWS V14.01,2013-03-27 04:55:00,